createdAt,value
2023-02-18T00:00:30.096Z,1002.9
2023-02-18T00:01:31.510Z,1002.9
2023-02-18T00:02:32.827Z,1002.9
2023-02-18T00:03:34.126Z,1002.9
2023-02-18T00:04:35.250Z,1002.8
2023-02-18T00:05:36.651Z,1002.8
2023-02-18T00:06:38.072Z,1002.9
2023-02-18T00:07:39.342Z,1002.9
2023-02-18T00:08:40.759Z,1002.8
2023-02-18T00:09:42.179Z,1002.9
2023-02-18T00:10:43.588Z,1002.8
2023-02-18T00:11:44.723Z,1002.8
2023-02-18T00:12:45.937Z,1002.8
2023-02-18T00:13:47.072Z,1002.8
2023-02-18T00:14:48.307Z,1002.8
2023-02-18T00:15:49.556Z,1002.8
2023-02-18T00:16:50.726Z,1002.8
2023-02-18T00:17:52.146Z,1002.8
2023-02-18T00:18:53.562Z,1002.8
2023-02-18T00:19:54.697Z,1002.8
2023-02-18T00:20:55.836Z,1002.8
2023-02-18T00:21:57.253Z,1002.8
2023-02-18T00:22:58.384Z,1002.9
2023-02-18T00:23:59.803Z,1002.9
2023-02-18T00:25:00.940Z,1002.9
2023-02-18T00:26:02.112Z,1002.9
2023-02-18T00:27:03.293Z,1002.9
2023-02-18T00:28:04.704Z,1002.8
2023-02-18T00:29:06.122Z,1002.8
2023-02-18T00:30:07.135Z,1002.8
2023-02-18T00:31:08.257Z,1002.8
2023-02-18T00:32:09.950Z,1002.8
2023-02-18T00:33:11.121Z,1002.8
2023-02-18T00:34:12.535Z,1002.8
2023-02-18T00:35:13.953Z,1002.7
2023-02-18T00:36:15.088Z,1002.7
2023-02-18T00:37:16.223Z,1002.7
2023-02-18T00:38:17.369Z,1002.7
2023-02-18T00:39:18.775Z,1002.7
2023-02-18T00:40:19.918Z,1002.7
2023-02-18T00:41:20.843Z,1002.7
2023-02-18T00:42:22.231Z,1002.7
2023-02-18T00:43:23.374Z,1002.7
2023-02-18T00:44:24.782Z,1002.7
2023-02-18T00:45:26.224Z,1002.7
2023-02-18T00:46:27.453Z,1002.7
2023-02-18T00:47:29.271Z,1002.7
2023-02-18T00:48:30.687Z,1002.7
2023-02-18T00:49:31.859Z,1002.7
2023-02-18T00:50:32.998Z,1002.7
2023-02-18T00:51:33.891Z,1002.7
2023-02-18T00:52:35.067Z,1002.7
2023-02-18T00:53:36.492Z,1002.7
2023-02-18T00:54:37.613Z,1002.7
2023-02-18T00:55:39.045Z,1002.7
2023-02-18T00:56:40.168Z,1002.6
2023-02-18T00:57:41.302Z,1002.6
2023-02-18T00:58:42.439Z,1002.7
2023-02-18T00:59:43.862Z,1002.7
2023-02-18T01:00:45.478Z,1002.7
2023-02-18T01:01:46.993Z,1002.7
2023-02-18T01:02:47.995Z,1002.6
2023-02-18T01:03:49.399Z,1002.6
2023-02-18T01:04:50.627Z,1002.6
2023-02-18T01:05:51.766Z,1002.7
2023-02-18T01:06:53.159Z,1002.6
2023-02-18T01:07:54.298Z,1002.6
2023-02-18T01:08:55.712Z,1002.6
2023-02-18T01:09:56.851Z,1002.6
2023-02-18T01:10:58.049Z,1002.6
2023-02-18T01:11:59.231Z,1002.6
2023-02-18T01:13:00.637Z,1002.7
2023-02-18T01:14:02.054Z,1002.7
2023-02-18T01:15:03.191Z,1002.7
2023-02-18T01:16:04.793Z,1002.8
2023-02-18T01:17:06.354Z,1002.8
2023-02-18T01:18:07.769Z,1002.7
2023-02-18T01:19:09.333Z,1002.7
2023-02-18T01:20:10.426Z,1002.7
2023-02-18T01:21:11.606Z,1002.7
2023-02-18T01:22:12.745Z,1002.7
2023-02-18T01:23:13.646Z,1002.7
2023-02-18T01:24:15.062Z,1002.7
2023-02-18T01:25:16.502Z,1002.8
2023-02-18T01:26:17.904Z,1002.8
2023-02-18T01:27:24.241Z,1002.7
2023-02-18T01:28:25.658Z,1002.7
2023-02-18T01:29:27.156Z,1002.7
2023-02-18T01:30:28.670Z,1002.7
2023-02-18T01:31:30.009Z,1002.7
2023-02-18T01:32:31.660Z,1002.7
2023-02-18T01:33:32.518Z,1002.6
2023-02-18T01:34:33.937Z,1002.7
2023-02-18T01:35:35.350Z,1002.7
2023-02-18T01:36:36.530Z,1002.7
2023-02-18T01:37:37.966Z,1002.8
2023-02-18T01:38:39.407Z,1002.8
2023-02-18T01:39:40.798Z,1002.8
2023-02-18T01:40:42.213Z,1002.7
2023-02-18T01:41:43.345Z,1002.7
2023-02-18T01:42:44.532Z,1002.7
2023-02-18T01:43:45.672Z,1002.7
2023-02-18T01:44:46.526Z,1002.7
2023-02-18T01:45:47.445Z,1002.7
2023-02-18T01:46:48.225Z,1002.7
2023-02-18T01:47:49.585Z,1002.7
2023-02-18T01:48:50.985Z,1002.7
2023-02-18T01:49:52.110Z,1002.7
2023-02-18T01:50:53.529Z,1002.8
2023-02-18T01:51:54.674Z,1002.7
2023-02-18T01:52:56.080Z,1002.7
2023-02-18T01:53:57.531Z,1002.7
2023-02-18T01:54:58.917Z,1002.7
2023-02-18T01:56:00.048Z,1002.7
2023-02-18T01:57:01.187Z,1002.7
2023-02-18T01:58:02.606Z,1002.7
2023-02-18T01:59:03.788Z,1002.7
2023-02-18T02:00:05.042Z,1002.7
2023-02-18T02:01:06.611Z,1002.7
2023-02-18T02:02:08.031Z,1002.7
2023-02-18T02:03:08.932Z,1002.7
2023-02-18T02:04:10.351Z,1002.7
2023-02-18T02:05:11.765Z,1002.6
2023-02-18T02:06:13.182Z,1002.6
2023-02-18T02:07:14.316Z,1002.6
2023-02-18T02:08:15.734Z,1002.7
2023-02-18T02:09:17.161Z,1002.6
2023-02-18T02:10:18.563Z,1002.6
2023-02-18T02:11:19.984Z,1002.6
2023-02-18T02:12:21.163Z,1002.6
2023-02-18T02:13:22.337Z,1002.6
2023-02-18T02:14:23.768Z,1002.6
2023-02-18T02:15:24.894Z,1002.6
2023-02-18T02:16:25.965Z,1002.5
2023-02-18T02:17:27.486Z,1002.5
2023-02-18T02:18:28.417Z,1002.5
2023-02-18T02:19:29.832Z,1002.6
2023-02-18T02:20:30.968Z,1002.6
2023-02-18T02:21:32.104Z,1002.5
2023-02-18T02:22:33.524Z,1002.5
2023-02-18T02:23:34.660Z,1002.5
2023-02-18T02:24:36.080Z,1002.5
2023-02-18T02:25:36.976Z,1002.5
2023-02-18T02:26:38.394Z,1002.5
2023-02-18T02:27:39.538Z,1002.5
2023-02-18T02:28:40.946Z,1002.5
2023-02-18T02:29:42.360Z,1002.5
2023-02-18T02:30:43.681Z,1002.5
2023-02-18T02:31:44.896Z,1002.5
2023-02-18T02:32:46.094Z,1002.5
2023-02-18T02:33:47.199Z,1002.5
2023-02-18T02:34:48.610Z,1002.5
2023-02-18T02:35:49.838Z,1002.5
2023-02-18T02:36:51.255Z,1002.5
2023-02-18T02:37:52.387Z,1002.5
2023-02-18T02:38:53.525Z,1002.4
2023-02-18T02:39:54.953Z,1002.4
2023-02-18T02:40:56.360Z,1002.4
2023-02-18T02:41:57.493Z,1002.4
2023-02-18T02:42:58.628Z,1002.4
2023-02-18T02:43:59.524Z,1002.4
2023-02-18T02:45:01.155Z,1002.4
2023-02-18T02:46:02.757Z,1002.4
2023-02-18T02:47:03.969Z,1002.4
2023-02-18T02:48:05.190Z,1002.4
2023-02-18T02:49:06.296Z,1002.4
2023-02-18T02:50:07.434Z,1002.4
2023-02-18T02:51:08.331Z,1002.4
2023-02-18T02:52:09.472Z,1002.5
2023-02-18T02:53:10.604Z,1002.4
2023-02-18T02:54:12.030Z,1002.4
2023-02-18T02:55:13.206Z,1002.4
2023-02-18T02:56:14.341Z,1002.4
2023-02-18T02:57:15.509Z,1002.4
2023-02-18T02:58:16.903Z,1002.4
2023-02-18T02:59:18.034Z,1002.3
2023-02-18T03:00:19.178Z,1002.3
2023-02-18T03:01:20.383Z,1002.3
2023-02-18T03:02:21.640Z,1002.3
2023-02-18T03:03:23.064Z,1002.2
2023-02-18T03:04:24.342Z,1002.3
2023-02-18T03:05:25.515Z,1002.3
2023-02-18T03:06:26.933Z,1002.3
2023-02-18T03:07:28.345Z,1002.3
2023-02-18T03:08:29.252Z,1002.3
2023-02-18T03:09:30.676Z,1002.3
2023-02-18T03:10:32.086Z,1002.2
2023-02-18T03:11:33.268Z,1002.2
2023-02-18T03:12:34.406Z,1002.2
2023-02-18T03:13:35.820Z,1002.2
2023-02-18T03:14:36.680Z,1002.2
2023-02-18T03:15:38.105Z,1002.2
2023-02-18T03:16:39.726Z,1002.2
2023-02-18T03:17:41.207Z,1002.2
2023-02-18T03:18:42.498Z,1002.2
2023-02-18T03:19:43.881Z,1002.2
2023-02-18T03:20:45.299Z,1002.3
2023-02-18T03:21:46.714Z,1002.2
2023-02-18T03:22:47.629Z,1002.2
2023-02-18T03:23:49.044Z,1002.3
2023-02-18T03:24:50.184Z,1002.3
2023-02-18T03:25:51.601Z,1002.3
2023-02-18T03:26:52.738Z,1002.3
2023-02-18T03:27:53.916Z,1002.2
2023-02-18T03:28:54.932Z,1002.3
2023-02-18T03:29:56.367Z,1002.3
2023-02-18T03:30:57.761Z,1002.3
2023-02-18T03:31:59.314Z,1002.2
2023-02-18T03:33:00.760Z,1002.2
2023-02-18T03:34:01.914Z,1002.2
2023-02-18T03:35:03.314Z,1002.2
2023-02-18T03:36:04.482Z,1002.2
2023-02-18T03:37:05.899Z,1002.1
2023-02-18T03:38:07.318Z,1002.2
2023-02-18T03:39:08.592Z,1002.2
2023-02-18T03:40:10.008Z,1002.2
2023-02-18T03:41:11.422Z,1002.2
2023-02-18T03:42:12.845Z,1002.2
2023-02-18T03:43:13.978Z,1002.2
2023-02-18T03:44:15.397Z,1002.2
2023-02-18T03:45:16.813Z,1002.2
2023-02-18T03:46:18.029Z,1002.2
2023-02-18T03:47:19.299Z,1002.2
2023-02-18T03:48:20.714Z,1002.2
2023-02-18T03:49:22.155Z,1002.2
2023-02-18T03:50:23.545Z,1002.2
2023-02-18T03:51:24.684Z,1002.2
2023-02-18T03:52:25.864Z,1002.2
2023-02-18T03:53:27.002Z,1002.2
2023-02-18T03:54:28.140Z,1002.2
2023-02-18T03:55:29.275Z,1002.2
2023-02-18T03:56:30.684Z,1002.1
2023-02-18T03:57:32.105Z,1002.1
2023-02-18T03:58:33.517Z,1002.1
2023-02-18T03:59:34.929Z,1002.1
2023-02-18T04:00:36.070Z,1002
2023-02-18T04:01:37.463Z,1002
2023-02-18T04:02:38.953Z,1002
2023-02-18T04:03:40.369Z,1002
2023-02-18T04:04:41.544Z,1002
2023-02-18T04:05:42.282Z,1002
2023-02-18T04:06:43.696Z,1002
2023-02-18T04:07:45.119Z,1001.9
2023-02-18T04:08:46.255Z,1001.9
2023-02-18T04:09:47.387Z,1001.9
2023-02-18T04:10:48.803Z,1001.8
2023-02-18T04:11:50.224Z,1001.8
2023-02-18T04:12:51.356Z,1001.8
2023-02-18T04:13:52.772Z,1001.8
2023-02-18T04:14:54.184Z,1001.8
2023-02-18T04:15:55.605Z,1001.8
2023-02-18T04:16:56.634Z,1001.8
2023-02-18T04:17:57.905Z,1001.8
2023-02-18T04:18:59.108Z,1001.8
2023-02-18T04:20:00.705Z,1001.8
2023-02-18T04:21:02.096Z,1001.7
2023-02-18T04:22:03.272Z,1001.7
2023-02-18T04:23:04.406Z,1001.6
2023-02-18T04:24:05.021Z,1001.6
2023-02-18T04:25:06.150Z,1001.6
2023-02-18T04:26:08.088Z,1001.6
2023-02-18T04:27:09.769Z,1001.6
2023-02-18T04:28:11.175Z,1001.6
2023-02-18T04:29:12.308Z,1001.6
2023-02-18T04:30:13.608Z,1001.7
2023-02-18T04:31:15.170Z,1001.7
2023-02-18T04:32:16.436Z,1001.6
2023-02-18T04:33:18.110Z,1001.6
2023-02-18T04:34:19.527Z,1001.7
2023-02-18T04:35:20.811Z,1001.6
2023-02-18T04:36:21.922Z,1001.6
2023-02-18T04:37:23.345Z,1001.6
2023-02-18T04:38:24.478Z,1001.6
2023-02-18T04:39:25.890Z,1001.5
2023-02-18T04:40:27.308Z,1001.5
2023-02-18T04:41:28.723Z,1001.5
2023-02-18T04:42:30.142Z,1001.5
2023-02-18T04:43:31.003Z,1001.6
2023-02-18T04:44:32.424Z,1001.5
2023-02-18T04:45:33.553Z,1001.6
2023-02-18T04:46:34.800Z,1001.6
2023-02-18T04:47:36.229Z,1001.6
2023-02-18T04:48:37.062Z,1001.6
2023-02-18T04:49:38.272Z,1001.5
2023-02-18T04:50:39.724Z,1001.5
2023-02-18T04:51:41.121Z,1001.4
2023-02-18T04:52:42.013Z,1001.4
2023-02-18T04:53:43.425Z,1001.4
2023-02-18T04:54:44.564Z,1001.4
2023-02-18T04:55:45.701Z,1001.4
2023-02-18T04:56:46.584Z,1001.3
2023-02-18T04:57:47.772Z,1001.4
2023-02-18T04:58:48.634Z,1001.4
2023-02-18T04:59:50.067Z,1001.4
2023-02-18T05:00:51.198Z,1001.4
2023-02-18T05:01:52.601Z,1001.4
2023-02-18T05:02:53.804Z,1001.4
2023-02-18T05:03:55.023Z,1001.4
2023-02-18T05:04:56.497Z,1001.4
2023-02-18T05:05:57.428Z,1001.4
2023-02-18T05:06:58.553Z,1001.5
2023-02-18T05:07:59.674Z,1001.5
2023-02-18T05:09:01.094Z,1001.5
2023-02-18T05:10:02.521Z,1001.5
2023-02-18T05:11:03.648Z,1001.5
2023-02-18T05:12:05.082Z,1001.5
2023-02-18T05:13:06.477Z,1001.5
2023-02-18T05:14:07.934Z,1001.4
2023-02-18T05:15:09.342Z,1001.4
2023-02-18T05:16:11.126Z,1001.4
2023-02-18T05:17:12.869Z,1001.4
2023-02-18T05:18:14.046Z,1001.4
2023-02-18T05:19:15.462Z,1001.3
2023-02-18T05:20:16.717Z,1001.4
2023-02-18T05:21:17.911Z,1001.4
2023-02-18T05:22:19.280Z,1001.4
2023-02-18T05:23:20.430Z,1001.4
2023-02-18T05:24:21.834Z,1001.3
2023-02-18T05:25:22.981Z,1001.3
2023-02-18T05:26:23.831Z,1001.3
2023-02-18T05:27:24.967Z,1001.3
2023-02-18T05:28:26.385Z,1001.3
2023-02-18T05:29:27.800Z,1001.3
2023-02-18T05:30:29.182Z,1001.3
2023-02-18T05:31:30.353Z,1001.3
2023-02-18T05:32:31.925Z,1001.3
2023-02-18T05:33:33.337Z,1001.2
2023-02-18T05:34:34.731Z,1001.2
2023-02-18T05:35:35.945Z,1001.2
2023-02-18T05:36:37.379Z,1001.2
2023-02-18T05:37:38.490Z,1001.2
2023-02-18T05:38:39.668Z,1001.2
2023-02-18T05:39:40.806Z,1001.1
2023-02-18T05:40:41.944Z,1001.1
2023-02-18T05:41:43.357Z,1001.1
2023-02-18T05:42:44.502Z,1001.1
2023-02-18T05:43:45.633Z,1001
2023-02-18T05:44:47.047Z,1001
2023-02-18T05:45:48.189Z,1001
2023-02-18T05:46:49.151Z,1000.9
2023-02-18T05:47:50.569Z,1000.9
2023-02-18T05:48:51.746Z,1000.9
2023-02-18T05:49:53.160Z,1000.9
2023-02-18T05:50:54.578Z,1000.9
2023-02-18T05:51:55.739Z,1000.8
2023-02-18T05:52:57.130Z,1000.8
2023-02-18T05:53:58.548Z,1000.8
2023-02-18T05:54:59.725Z,1000.8
2023-02-18T05:56:00.862Z,1000.8
2023-02-18T05:57:01.997Z,1000.8
2023-02-18T05:58:03.427Z,1000.8
2023-02-18T05:59:04.833Z,1000.8
2023-02-18T06:00:06.244Z,1000.7
2023-02-18T06:01:07.425Z,1000.7
2023-02-18T06:02:08.571Z,1000.7
2023-02-18T06:03:09.980Z,1000.7
2023-02-18T06:04:11.401Z,1000.7
2023-02-18T06:05:12.528Z,1000.7
2023-02-18T06:06:14.150Z,1000.7
2023-02-18T06:07:15.380Z,1000.7
2023-02-18T06:08:16.538Z,1000.7
2023-02-18T06:09:17.553Z,1000.7
2023-02-18T06:10:18.399Z,1000.7
2023-02-18T06:11:19.812Z,1000.7
2023-02-18T06:12:21.232Z,1000.7
2023-02-18T06:13:22.646Z,1000.7
2023-02-18T06:14:24.062Z,1000.7
2023-02-18T06:15:25.476Z,1000.6
2023-02-18T06:16:26.904Z,1000.7
2023-02-18T06:17:28.052Z,1000.6
2023-02-18T06:18:29.468Z,1000.6
2023-02-18T06:19:30.882Z,1000.6
2023-02-18T06:20:32.056Z,1000.6
2023-02-18T06:21:33.468Z,1000.6
2023-02-18T06:22:34.539Z,1000.5
2023-02-18T06:23:35.725Z,1000.6
2023-02-18T06:24:37.140Z,1000.6
2023-02-18T06:25:37.992Z,1000.4
2023-02-18T06:26:39.174Z,1000.5
2023-02-18T06:27:40.323Z,1000.5
2023-02-18T06:28:41.739Z,1000.4
2023-02-18T06:29:42.876Z,1000.4
2023-02-18T06:30:44.049Z,1000.4
2023-02-18T06:31:45.469Z,1000.4
2023-02-18T06:32:47.076Z,1000.3
2023-02-18T06:33:48.251Z,1000.2
2023-02-18T06:34:49.665Z,1000.3
2023-02-18T06:35:51.544Z,1000.3
2023-02-18T06:36:52.468Z,1000.2
2023-02-18T06:37:53.910Z,1000.2
2023-02-18T06:38:55.298Z,1000.2
2023-02-18T06:39:56.714Z,1000.2
2023-02-18T06:40:57.850Z,1000.1
2023-02-18T06:41:58.990Z,1000.2
2023-02-18T06:43:00.094Z,1000.2
2023-02-18T06:44:00.990Z,1000.3
2023-02-18T06:45:02.139Z,1000.1
2023-02-18T06:46:03.541Z,1000.1
2023-02-18T06:47:04.718Z,1000.1
2023-02-18T06:48:06.136Z,1000.2
2023-02-18T06:49:07.551Z,1000.1
2023-02-18T06:50:08.690Z,1000.1
2023-02-18T06:51:10.107Z,1000.1
2023-02-18T06:52:11.526Z,1000
2023-02-18T06:53:12.776Z,999.9
2023-02-18T06:54:14.188Z,999.9
2023-02-18T06:55:15.361Z,999.9
2023-02-18T06:56:16.505Z,999.9
2023-02-18T06:57:17.676Z,999.9
2023-02-18T06:58:18.809Z,999.9
2023-02-18T06:59:20.224Z,999.8
2023-02-18T07:00:21.638Z,999.8
2023-02-18T07:01:23.051Z,999.8
2023-02-18T07:02:24.471Z,999.8
2023-02-18T07:03:25.436Z,999.8
2023-02-18T07:04:26.622Z,999.8
2023-02-18T07:05:28.043Z,999.7
2023-02-18T07:06:29.177Z,999.7
2023-02-18T07:07:30.558Z,999.7
2023-02-18T07:08:31.993Z,999.8
2023-02-18T07:09:33.390Z,999.8
2023-02-18T07:10:34.799Z,999.7
2023-02-18T07:11:36.223Z,999.7
2023-02-18T07:12:37.388Z,999.6
2023-02-18T07:13:38.806Z,999.5
2023-02-18T07:14:40.223Z,999.5
2023-02-18T07:15:41.634Z,999.5
2023-02-18T07:16:43.133Z,999.5
2023-02-18T07:17:44.385Z,999.6
2023-02-18T07:18:45.800Z,999.5
2023-02-18T07:19:47.216Z,999.5
2023-02-18T07:20:48.362Z,999.5
2023-02-18T07:21:49.768Z,999.5
2023-02-18T07:22:50.902Z,999.5
2023-02-18T07:23:52.343Z,999.5
2023-02-18T07:24:53.456Z,999.5
2023-02-18T07:25:54.633Z,999.4
2023-02-18T07:26:55.768Z,999.5
2023-02-18T07:27:56.668Z,999.5
2023-02-18T07:28:58.080Z,999.5
2023-02-18T07:29:59.530Z,999.4
2023-02-18T07:31:00.708Z,999.4
2023-02-18T07:32:02.189Z,999.4
2023-02-18T07:33:04.333Z,999.4
2023-02-18T07:34:05.743Z,999.4
2023-02-18T07:35:06.930Z,999.3
2023-02-18T07:36:08.886Z,999.3
2023-02-18T07:37:10.687Z,999.3
2023-02-18T07:38:11.891Z,999.3
2023-02-18T07:39:13.080Z,999.2
2023-02-18T07:40:14.193Z,999.2
2023-02-18T07:41:15.604Z,999.2
2023-02-18T07:42:16.784Z,999.1
2023-02-18T07:43:17.970Z,999
2023-02-18T07:44:19.107Z,999
2023-02-18T07:45:20.526Z,999.1
2023-02-18T07:46:21.935Z,999.1
2023-02-18T07:47:23.353Z,999.1
2023-02-18T07:48:24.771Z,999.1
2023-02-18T07:49:25.900Z,999
2023-02-18T07:50:27.321Z,999
2023-02-18T07:51:28.452Z,999
2023-02-18T07:52:29.594Z,999
2023-02-18T07:53:31.002Z,999
2023-02-18T07:54:32.442Z,999
2023-02-18T07:55:33.548Z,998.9
2023-02-18T07:56:34.969Z,999
2023-02-18T07:57:36.380Z,998.9
2023-02-18T07:58:37.796Z,998.9
2023-02-18T07:59:39.209Z,998.9
2023-02-18T08:00:40.625Z,998.9
2023-02-18T08:01:44.828Z,998.9
2023-02-18T08:02:46.276Z,998.9
2023-02-18T08:03:47.942Z,998.8
2023-02-18T08:04:48.626Z,998.8
2023-02-18T08:05:49.769Z,998.8
2023-02-18T08:06:50.939Z,998.8
2023-02-18T08:07:52.072Z,998.8
2023-02-18T08:08:53.485Z,998.7
2023-02-18T08:09:54.942Z,998.7
2023-02-18T08:10:56.325Z,998.7
2023-02-18T08:11:57.188Z,998.7
2023-02-18T08:12:58.603Z,998.7
2023-02-18T08:14:00.026Z,998.6
2023-02-18T08:15:01.160Z,998.6
2023-02-18T08:16:02.290Z,998.6
2023-02-18T08:17:03.711Z,998.6
2023-02-18T08:18:05.126Z,998.6
2023-02-18T08:19:06.536Z,998.6
2023-02-18T08:20:07.218Z,998.5
2023-02-18T08:21:08.360Z,998.5
2023-02-18T08:22:09.770Z,998.5
2023-02-18T08:23:10.901Z,998.4
2023-02-18T08:24:12.316Z,998.4
2023-02-18T08:25:29.851Z,998.4
2023-02-18T08:26:31.212Z,998.4
2023-02-18T08:27:32.628Z,998.4
2023-02-18T08:28:34.042Z,998.4
2023-02-18T08:29:35.237Z,998.3
2023-02-18T08:30:36.717Z,998.3
2023-02-18T08:31:37.831Z,998.3
2023-02-18T08:32:39.031Z,998.3
2023-02-18T08:33:40.452Z,998.2
2023-02-18T08:34:41.866Z,998.2
2023-02-18T08:35:43.286Z,998.2
2023-02-18T08:36:44.458Z,998.2
2023-02-18T08:37:55.137Z,998.2
2023-02-18T08:38:58.545Z,998.1
2023-02-18T08:39:59.388Z,998.1
2023-02-18T08:41:00.548Z,998
2023-02-18T08:42:01.941Z,998
2023-02-18T08:43:03.109Z,998
2023-02-18T08:44:04.498Z,997.9
2023-02-18T08:45:05.905Z,997.8
2023-02-18T08:46:07.229Z,997.8
2023-02-18T08:48:20.395Z,997.9
2023-02-18T08:49:21.838Z,997.8
2023-02-18T08:50:23.015Z,997.9
2023-02-18T08:51:24.425Z,997.9
2023-02-18T08:52:25.860Z,997.9
2023-02-18T08:53:27.257Z,997.9
2023-02-18T08:54:28.473Z,997.9
2023-02-18T08:55:29.892Z,997.9
2023-02-18T08:56:31.046Z,997.9
2023-02-18T08:57:32.442Z,997.8
2023-02-18T08:58:33.575Z,997.8
2023-02-18T08:59:34.991Z,997.9
2023-02-18T09:00:36.147Z,997.9
2023-02-18T09:01:37.324Z,997.8
2023-02-18T09:02:38.424Z,997.9
2023-02-18T09:03:39.616Z,997.9
2023-02-18T09:04:41.019Z,997.9
2023-02-18T09:05:42.161Z,997.8
2023-02-18T09:06:43.294Z,997.9
2023-02-18T09:07:44.705Z,997.8
2023-02-18T09:08:46.126Z,997.8
2023-02-18T09:09:47.294Z,997.8
2023-02-18T09:10:48.232Z,997.7
2023-02-18T09:11:49.672Z,997.7
2023-02-18T09:12:50.786Z,997.7
2023-02-18T09:13:51.968Z,997.7
2023-02-18T09:14:53.105Z,997.7
2023-02-18T09:15:54.543Z,997.6
2023-02-18T09:16:55.744Z,997.6
2023-02-18T09:17:56.881Z,997.6
2023-02-18T09:18:58.014Z,997.6
2023-02-18T09:19:59.155Z,997.5
2023-02-18T09:21:00.065Z,997.6
2023-02-18T09:22:01.473Z,997.5
2023-02-18T09:23:03.029Z,997.6
2023-02-18T09:24:04.461Z,997.6
2023-02-18T09:25:05.502Z,997.6
2023-02-18T09:26:06.566Z,997.6
2023-02-18T09:27:08.760Z,997.6
2023-02-18T09:28:12.383Z,997.6
2023-02-18T09:29:13.567Z,997.5
2023-02-18T09:30:14.889Z,997.5
2023-02-18T09:31:16.427Z,997.6
2023-02-18T09:32:34.960Z,997.6
2023-02-18T09:33:36.868Z,997.6
2023-02-18T09:34:38.039Z,997.6
2023-02-18T09:35:39.454Z,997.6
2023-02-18T09:36:40.348Z,997.5
2023-02-18T09:37:41.763Z,997.5
2023-02-18T09:38:42.926Z,997.5
2023-02-18T09:39:44.061Z,997.5
2023-02-18T09:40:45.201Z,997.4
2023-02-18T09:41:46.407Z,997.4
2023-02-18T09:42:47.840Z,997.4
2023-02-18T09:43:49.231Z,997.3
2023-02-18T09:44:50.642Z,997.3
2023-02-18T09:45:51.956Z,997.3
2023-02-18T09:46:52.850Z,997.3
2023-02-18T09:47:54.287Z,997.3
2023-02-18T09:48:55.424Z,997.2
2023-02-18T09:49:56.837Z,997.2
2023-02-18T09:50:57.978Z,997.2
2023-02-18T09:51:59.388Z,997.2
2023-02-18T09:53:00.807Z,997.1
2023-02-18T09:54:02.173Z,997.1
2023-02-18T09:55:03.574Z,997.1
2023-02-18T09:56:04.709Z,997.1
2023-02-18T09:57:05.862Z,997.1
2023-02-18T09:58:07.414Z,997.1
2023-02-18T09:59:08.856Z,997
2023-02-18T10:00:09.990Z,996.9
2023-02-18T10:01:11.917Z,996.9
2023-02-18T10:02:13.346Z,997
2023-02-18T10:03:14.780Z,997
2023-02-18T10:04:16.178Z,996.9
2023-02-18T10:05:17.596Z,997
2023-02-18T10:06:19.115Z,996.9
2023-02-18T10:07:20.495Z,997
2023-02-18T10:08:21.679Z,997
2023-02-18T10:09:23.108Z,997
2023-02-18T10:10:24.524Z,996.9
2023-02-18T10:11:25.925Z,996.9
2023-02-18T10:12:27.348Z,996.9
2023-02-18T10:13:28.713Z,996.9
2023-02-18T10:14:30.108Z,996.9
2023-02-18T10:15:31.235Z,996.8
2023-02-18T10:16:33.024Z,996.9
2023-02-18T10:17:33.959Z,996.9
2023-02-18T10:18:35.385Z,996.9
2023-02-18T10:19:36.531Z,996.9
2023-02-18T10:20:37.941Z,996.9
2023-02-18T10:21:39.351Z,997
2023-02-18T10:22:40.278Z,997
2023-02-18T10:23:41.457Z,996.9
2023-02-18T10:24:42.859Z,996.9
2023-02-18T10:25:44.274Z,996.9
2023-02-18T10:26:45.405Z,996.9
2023-02-18T10:27:46.829Z,996.9
2023-02-18T10:28:48.064Z,997
2023-02-18T10:29:49.539Z,996.9
2023-02-18T10:30:51.066Z,996.8
2023-02-18T10:31:52.398Z,996.9
2023-02-18T10:32:53.914Z,996.8
2023-02-18T10:33:55.052Z,996.8
2023-02-18T10:34:57.343Z,996.8
2023-02-18T10:36:01.310Z,996.8
2023-02-18T10:37:02.938Z,996.8
2023-02-18T10:38:04.351Z,996.7
2023-02-18T10:39:05.492Z,996.7
2023-02-18T10:40:07.000Z,996.7
2023-02-18T10:41:08.465Z,996.7
2023-02-18T10:42:10.255Z,996.7
2023-02-18T10:43:11.199Z,996.6
2023-02-18T10:44:12.618Z,996.6
2023-02-18T10:45:14.005Z,996.6
2023-02-18T10:46:15.264Z,996.6
2023-02-18T10:47:16.551Z,996.6
2023-02-18T10:48:17.970Z,996.5
2023-02-18T10:49:19.344Z,996.5
2023-02-18T10:50:20.767Z,996.5
2023-02-18T10:51:21.910Z,996.5
2023-02-18T10:52:23.040Z,996.5
2023-02-18T10:53:23.651Z,996.5
2023-02-18T10:54:24.798Z,996.5
2023-02-18T10:55:26.201Z,996.5
2023-02-18T10:56:27.638Z,996.5
2023-02-18T10:57:28.843Z,996.5
2023-02-18T10:58:29.984Z,996.5
2023-02-18T10:59:31.181Z,996.5
2023-02-18T11:00:32.079Z,996.6
2023-02-18T11:01:33.554Z,996.6
2023-02-18T11:02:35.066Z,996.6
2023-02-18T11:03:35.988Z,996.5
2023-02-18T11:04:37.409Z,996.5
2023-02-18T11:05:38.332Z,996.7
2023-02-18T11:06:39.190Z,996.6
2023-02-18T11:07:40.603Z,996.5
2023-02-18T11:08:42.020Z,996.6
2023-02-18T11:09:47.009Z,996.5
2023-02-18T11:10:48.242Z,996.5
2023-02-18T11:12:07.682Z,996.5
2023-02-18T11:13:09.933Z,996.5
2023-02-18T11:14:11.070Z,996.4
2023-02-18T11:15:12.281Z,996.4
2023-02-18T11:16:14.448Z,996.4
2023-02-18T11:17:18.360Z,996.4
2023-02-18T11:18:19.484Z,996.3
2023-02-18T11:19:20.688Z,996.2
2023-02-18T11:20:22.110Z,996.3
2023-02-18T11:21:23.532Z,996.3
2023-02-18T11:22:24.936Z,996.2
2023-02-18T11:23:26.076Z,996.2
2023-02-18T11:24:27.497Z,996.1
2023-02-18T11:25:28.920Z,996.1
2023-02-18T11:26:30.183Z,996.2
2023-02-18T11:27:31.608Z,996.2
2023-02-18T11:28:33.015Z,996.2
2023-02-18T11:29:34.345Z,996.2
2023-02-18T11:30:35.957Z,996.1
2023-02-18T11:31:37.088Z,996.1
2023-02-18T11:32:38.277Z,996.1
2023-02-18T11:33:39.703Z,996
2023-02-18T11:34:40.834Z,996
2023-02-18T11:35:42.249Z,996
2023-02-18T11:36:43.664Z,995.9
2023-02-18T11:37:44.843Z,995.9
2023-02-18T11:38:46.719Z,995.7
2023-02-18T11:39:48.139Z,995.8
2023-02-18T11:40:49.275Z,995.7
2023-02-18T11:41:50.411Z,995.7
2023-02-18T11:42:51.268Z,995.8
2023-02-18T11:43:52.682Z,995.9
2023-02-18T11:44:53.913Z,996
2023-02-18T11:45:55.356Z,995.9
2023-02-18T11:46:56.862Z,995.9
2023-02-18T11:47:58.243Z,995.9
2023-02-18T11:48:59.380Z,995.9
2023-02-18T11:50:00.792Z,995.8
2023-02-18T11:51:02.209Z,995.9
2023-02-18T11:52:03.345Z,995.9
2023-02-18T11:53:04.765Z,995.8
2023-02-18T11:54:06.180Z,995.9
2023-02-18T11:55:07.597Z,995.9
2023-02-18T11:56:09.017Z,995.9
2023-02-18T11:57:10.155Z,995.9
2023-02-18T11:58:11.298Z,995.9
2023-02-18T11:59:12.460Z,995.9
2023-02-18T12:00:13.941Z,995.9
2023-02-18T12:01:15.438Z,995.9
2023-02-18T12:02:16.775Z,995.8
2023-02-18T12:03:17.991Z,995.8
2023-02-18T12:04:19.394Z,995.7
2023-02-18T12:05:20.816Z,995.7
2023-02-18T12:06:22.316Z,995.8
2023-02-18T12:07:23.728Z,995.8
2023-02-18T12:08:25.200Z,995.7
2023-02-18T12:09:26.744Z,995.8
2023-02-18T12:10:28.165Z,996
2023-02-18T12:11:29.582Z,995.9
2023-02-18T12:12:30.719Z,995.9
2023-02-18T12:13:32.135Z,996
2023-02-18T12:14:33.751Z,995.9
2023-02-18T12:15:35.009Z,995.8
2023-02-18T12:16:36.585Z,995.8
2023-02-18T12:17:38.277Z,995.8
2023-02-18T12:18:43.107Z,995.8
2023-02-18T12:19:44.232Z,995.9
2023-02-18T12:20:45.645Z,995.8
2023-02-18T12:21:46.543Z,995.7
2023-02-18T12:22:47.676Z,995.8
2023-02-18T12:23:49.091Z,995.9
2023-02-18T12:24:50.509Z,995.9
2023-02-18T12:25:51.932Z,995.9
2023-02-18T12:26:52.825Z,995.9
2023-02-18T12:27:54.239Z,996
2023-02-18T12:28:55.655Z,996
2023-02-18T12:29:57.154Z,996
2023-02-18T12:30:58.343Z,995.9
2023-02-18T12:31:59.733Z,996.1
2023-02-18T12:33:01.203Z,996.1
2023-02-18T12:34:02.620Z,996.1
2023-02-18T12:35:04.044Z,995.9
2023-02-18T12:36:05.462Z,996
2023-02-18T12:37:06.869Z,996.1
2023-02-18T12:38:08.006Z,995.9
2023-02-18T12:39:09.422Z,995.9
2023-02-18T12:40:10.839Z,996
2023-02-18T12:41:12.333Z,996.1
2023-02-18T12:42:13.763Z,995.9
2023-02-18T12:43:15.480Z,995.9
2023-02-18T12:44:16.898Z,996
2023-02-18T12:45:18.310Z,996
2023-02-18T12:46:19.727Z,995.9
2023-02-18T12:47:21.167Z,996
2023-02-18T12:48:22.557Z,996.1
2023-02-18T12:49:23.971Z,996
2023-02-18T12:50:25.395Z,996
2023-02-18T12:51:30.374Z,996
2023-02-18T12:52:32.005Z,996
2023-02-18T12:53:33.193Z,996
2023-02-18T12:54:34.607Z,996
2023-02-18T12:55:35.784Z,995.9
2023-02-18T12:56:37.197Z,996
2023-02-18T12:57:38.614Z,995.9
2023-02-18T12:58:40.028Z,996.1
2023-02-18T12:59:41.634Z,996.1
2023-02-18T13:00:43.072Z,996.1
2023-02-18T13:01:44.189Z,996
2023-02-18T13:02:45.696Z,995.9